Time;durP1;ratioP1;P1;durP2;ratioP2;P2;SDS_P1;SDS_P2;PMS_P1;PMS_P2;Temp;Humidity;BMP_temperature;BMP_pressure;BME280_temperature;BME280_humidity;BME280_pressure;Samples;Min_cycle;Max_cycle;Signal;HPM_P1;HPM_P2
2022/09/29 00:01:18;;;;;;;21.10;8.35;;;;;;;9.36;96.46;96639.19;4179624;28;20726;-82
2022/09/29 00:03:22;;;;;;;27.52;8.40;;;;;;;9.37;96.79;96629.59;4190161;28;20210;-82
2022/09/29 00:05:25;;;;;;;27.75;9.40;;;;;;;9.37;97.05;96633.03;4184596;28;20227;-81
2022/09/29 00:07:28;;;;;;;29.02;9.27;;;;;;;9.36;97.88;96635.75;4186697;28;20240;-82
2022/09/29 00:09:33;;;;;;;29.55;8.05;;;;;;;9.36;97.27;96635.75;4195806;28;20205;-83
2022/09/29 00:11:36;;;;;;;22.58;8.45;;;;;;;9.34;97.45;96637.69;4175269;28;20283;-82
2022/09/29 00:13:39;;;;;;;31.38;8.52;;;;;;;9.34;97.05;96638.50;4193458;28;20298;-82
2022/09/29 00:15:42;;;;;;;10.30;8.15;;;;;;;9.31;97.35;96638.75;4193194;28;20256;-82
2022/09/29 00:17:45;;;;;;;21.35;7.97;;;;;;;9.29;97.15;96638.09;4179759;28;20275;-82
2022/09/29 00:20:09;;;;;;;24.27;7.60;;;;;;;9.30;97.07;96639.72;4185053;28;20209;-82
2022/09/29 00:22:12;;;;;;;8.68;6.55;;;;;;;9.32;97.16;96639.56;4176978;28;20248;-81
2022/09/29 00:24:15;;;;;;;8.73;6.63;;;;;;;9.34;97.36;96637.69;4177156;28;20202;-82
2022/09/29 00:26:21;;;;;;;9.33;6.50;;;;;;;9.29;97.90;96640.69;4189582;28;20610;-83
2022/09/29 00:28:24;;;;;;;12.87;7.40;;;;;;;9.28;97.08;96636.44;4165717;28;20633;-82
2022/09/29 00:30:28;;;;;;;9.57;6.72;;;;;;;9.30;97.91;96634.50;4186183;28;20620;-82
2022/09/29 00:32:31;;;;;;;9.00;6.32;;;;;;;9.32;97.80;96632.63;4175003;28;20236;-82
2022/09/29 00:34:34;;;;;;;10.27;6.53;;;;;;;9.31;97.88;96636.16;4177636;28;20696;-82
2022/09/29 00:36:37;;;;;;;9.30;7.00;;;;;;;9.33;97.86;96626.44;4189386;28;20687;-82
2022/09/29 00:38:40;;;;;;;9.25;6.63;;;;;;;9.34;98.50;96628.09;4191376;28;20656;-82
2022/09/29 00:40:43;;;;;;;11.85;6.93;;;;;;;9.37;97.76;96632.19;4178239;28;20669;-81
2022/09/29 00:42:48;;;;;;;12.10;6.15;;;;;;;9.36;97.61;96626.16;4192275;28;20224;-83
2022/09/29 00:45:15;;;;;;;7.97;6.03;;;;;;;9.35;97.92;96628.91;4195091;28;20205;-82
2022/09/29 00:47:18;;;;;;;8.68;6.32;;;;;;;9.34;97.71;96620.28;4190614;28;20225;-82
2022/09/29 00:49:27;;;;;;;6.88;6.15;;;;;;;9.32;97.56;96624.81;4179466;28;20221;-82
2022/09/29 00:51:33;;;;;;;7.70;5.70;;;;;;;9.32;97.75;96630.00;4207767;28;20237;-82
2022/09/29 00:53:36;;;;;;;9.85;5.95;;;;;;;9.32;97.44;96618.75;4191744;28;20205;-81
2022/09/29 00:55:43;;;;;;;8.07;6.40;;;;;;;9.34;97.16;96612.47;4193376;28;20650;-83
2022/09/29 00:57:53;;;;;;;8.80;5.78;;;;;;;9.35;97.26;96613.28;4172648;28;20424;-81
2022/09/29 01:00:00;;;;;;;7.60;6.15;;;;;;;9.35;97.51;96608.94;4191612;28;20295;-82
2022/09/29 01:02:04;;;;;;;6.45;5.65;;;;;;;9.38;97.61;96614.69;4194171;28;20206;-82
2022/09/29 01:04:11;;;;;;;7.00;5.57;;;;;;;9.38;97.75;96608.63;4178928;28;20688;-83
2022/09/29 01:06:16;;;;;;;6.15;5.55;;;;;;;9.40;97.85;96609.34;4195528;28;20221;-82
2022/09/29 01:08:23;;;;;;;7.28;5.68;;;;;;;9.40;97.74;96599.75;4184089;28;20569;-82
2022/09/29 01:10:27;;;;;;;7.88;6.10;;;;;;;9.42;97.90;96610.03;4186927;28;20204;-82
2022/09/29 01:12:30;;;;;;;7.43;5.90;;;;;;;9.44;98.27;96605.50;4202784;28;20739;-81
2022/09/29 01:14:35;;;;;;;9.38;6.93;;;;;;;9.46;97.99;96601.00;4181824;28;20301;-82
2022/09/29 01:16:40;;;;;;;8.93;6.27;;;;;;;9.47;97.52;96605.22;4191010;28;20204;-81
2022/09/29 01:18:45;;;;;;;10.13;6.90;;;;;;;9.45;97.72;96601.94;4191902;28;21182;-82
2022/09/29 01:20:52;;;;;;;8.40;7.20;;;;;;;9.47;98.73;96600.03;4188473;28;20221;-82
2022/09/29 01:23:28;;;;;;;8.55;6.85;;;;;;;9.48;98.17;96609.50;4187029;28;20209;-82
2022/09/29 01:26:06;;;;;;;7.97;6.80;;;;;;;9.50;98.00;96608.41;4175996;28;20555;-81
2022/09/29 01:28:28;;;;;;;8.68;6.50;;;;;;;9.48;98.36;96607.69;4165042;28;20720;-81
2022/09/29 01:30:50;;;;;;;9.35;6.57;;;;;;;9.48;98.35;96607.69;4189371;28;20221;-82
2022/09/29 01:33:10;;;;;;;8.23;6.10;;;;;;;9.47;98.44;96610.44;4186532;28;20243;-82
2022/09/29 01:35:17;;;;;;;8.45;6.20;;;;;;;9.49;98.49;96613.75;4188581;28;20208;-82
2022/09/29 01:37:25;;;;;;;10.57;6.82;;;;;;;9.51;98.74;96604.03;4190809;28;20209;-82
2022/09/29 01:39:32;;;;;;;9.20;6.68;;;;;;;9.49;98.73;96611.97;4191521;28;20672;-82
2022/09/29 01:41:41;;;;;;;9.55;6.90;;;;;;;9.51;98.41;96615.25;4189403;28;20226;-82
2022/09/29 01:43:47;;;;;;;9.82;6.85;;;;;;;9.51;98.54;96612.63;4199566;28;20884;-81
2022/09/29 01:45:59;;;;;;;11.27;6.60;;;;;;;9.53;98.59;96617.72;4169922;28;20288;-82
2022/09/29 01:48:05;;;;;;;8.20;6.47;;;;;;;9.56;98.23;96620.03;4205274;28;20228;-82
2022/09/29 01:50:13;;;;;;;10.73;7.20;;;;;;;9.57;98.48;96617.31;4182698;28;20233;-81
2022/09/29 01:52:21;;;;;;;8.50;5.80;;;;;;;9.58;98.77;96615.53;4179545;28;20236;-81
2022/09/29 01:54:28;;;;;;;8.57;6.70;;;;;;;9.58;98.38;96618.97;4184810;28;20616;-81
2022/09/29 01:56:35;;;;;;;10.02;6.90;;;;;;;9.62;98.43;96617.75;4177011;28;20631;-82
2022/09/29 01:58:42;;;;;;;9.27;6.38;;;;;;;9.59;98.71;96611.97;4184200;28;20201;-83
2022/09/29 02:00:49;;;;;;;10.07;7.03;;;;;;;9.58;98.42;96618.16;4193485;28;20248;-81
2022/09/29 02:02:58;;;;;;;11.70;7.05;;;;;;;9.57;98.47;96622.50;4194436;28;20283;-81
2022/09/29 02:05:03;;;;;;;8.68;6.22;;;;;;;9.57;98.27;96625.13;4186835;28;20214;-82
2022/09/29 02:07:13;;;;;;;7.38;5.95;;;;;;;9.57;98.04;96619.09;4188672;28;20254;-81
2022/09/29 02:09:23;;;;;;;9.30;6.60;;;;;;;9.58;98.51;96618.16;4190612;28;20201;-81
2022/09/29 02:11:27;;;;;;;9.27;5.95;;;;;;;9.60;98.18;96627.44;4192310;28;21042;-82
2022/09/29 02:13:32;;;;;;;8.73;6.97;;;;;;;9.59;98.14;96620.63;4180206;28;20210;-82
2022/09/29 02:15:38;;;;;;;9.85;6.90;;;;;;;9.58;98.01;96621.56;4190103;28;20669;-81
2022/09/29 02:17:45;;;;;;;7.15;6.00;;;;;;;9.58;98.52;96625.97;4196551;28;20263;-81
2022/09/29 02:19:51;;;;;;;8.20;6.43;;;;;;;9.59;98.22;96623.22;4193248;28;20212;-82
2022/09/29 02:21:54;;;;;;;8.07;6.40;;;;;;;9.60;98.01;96629.25;4190311;28;20300;-81
2022/09/29 02:23:57;;;;;;;8.33;6.50;;;;;;;9.58;98.04;96620.75;4194845;28;20582;-81
2022/09/29 02:26:00;;;;;;;9.27;6.93;;;;;;;9.57;97.95;96627.72;4196610;28;20626;-82
2022/09/29 02:28:04;;;;;;;7.53;5.93;;;;;;;9.57;97.96;96634.72;4184238;28;20267;-82
2022/09/29 02:30:08;;;;;;;8.40;6.30;;;;;;;9.56;98.08;96627.84;4195546;28;20678;-82
2022/09/29 02:32:11;;;;;;;10.05;6.38;;;;;;;9.53;97.77;96630.72;4191557;28;20291;-81
2022/09/29 02:34:17;;;;;;;7.43;5.95;;;;;;;9.51;97.86;96625.66;4181252;28;20217;-81
2022/09/29 02:36:32;;;;;;;8.65;7.60;;;;;;;9.52;97.86;96626.50;4198617;28;20236;-82
2022/09/29 02:38:41;;;;;;;7.63;6.03;;;;;;;9.52;98.25;96631.69;4196947;28;20206;-82
2022/09/29 02:40:50;;;;;;;6.68;5.97;;;;;;;9.54;98.35;96637.56;4190008;28;20209;-82
2022/09/29 02:43:07;;;;;;;8.77;6.15;;;;;;;9.53;97.95;96638.53;4181298;28;20269;-82
2022/09/29 02:45:28;;;;;;;7.95;6.05;;;;;;;9.55;97.75;96634.03;4197548;28;20222;-82
2022/09/29 02:47:58;;;;;;;8.70;6.43;;;;;;;9.56;97.92;96638.25;4178647;28;20226;-82
2022/09/29 02:50:27;;;;;;;7.72;6.20;;;;;;;9.54;98.61;96641.00;4187772;28;20669;-81
2022/09/29 02:52:41;;;;;;;7.88;6.38;;;;;;;9.53;98.13;96639.38;4194462;28;20225;-81
2022/09/29 02:55:01;;;;;;;7.60;5.70;;;;;;;9.56;98.38;96639.09;4190551;28;20213;-81
2022/09/29 02:57:11;;;;;;;6.73;6.03;;;;;;;9.58;98.39;96637.19;4188685;28;20722;-82
2022/09/29 02:59:16;;;;;;;7.88;6.47;;;;;;;9.59;98.31;96638.84;4195919;28;20630;-81
2022/09/29 03:01:19;;;;;;;6.47;5.78;;;;;;;9.62;98.11;96637.72;4196749;28;20204;-81
2022/09/29 03:03:22;;;;;;;6.72;5.72;;;;;;;9.63;98.06;96639.38;4181318;28;20203;-81
2022/09/29 03:05:26;;;;;;;7.22;6.10;;;;;;;9.61;97.38;96630.91;4200109;28;20612;-82
2022/09/29 03:07:29;;;;;;;8.10;6.45;;;;;;;9.63;97.90;96636.78;4196174;28;20212;-82
2022/09/29 03:09:33;;;;;;;7.40;5.57;;;;;;;9.63;97.81;96631.56;4179664;28;20213;-81
2022/09/29 03:11:36;;;;;;;7.35;5.70;;;;;;;9.62;98.10;96625.56;4175243;28;20226;-82
2022/09/29 03:13:39;;;;;;;6.65;5.22;;;;;;;9.63;97.96;96627.19;4195592;28;20241;-82
2022/09/29 03:15:42;;;;;;;8.40;6.87;;;;;;;9.64;98.14;96625.41;4207489;28;20236;-82
2022/09/29 03:17:45;;;;;;;8.52;6.70;;;;;;;9.63;98.25;96614.16;4184833;28;20687;-82
2022/09/29 03:19:48;;;;;;;6.95;6.25;;;;;;;9.65;98.28;96619.22;4171096;28;20293;-82
2022/09/29 03:21:52;;;;;;;6.73;5.30;;;;;;;9.63;98.49;96621.97;4175029;28;20237;-82
2022/09/29 03:23:55;;;;;;;7.63;6.20;;;;;;;9.63;98.32;96616.78;4178659;28;21022;-82
2022/09/29 03:26:01;;;;;;;7.80;6.05;;;;;;;9.63;98.12;96608.16;4185339;28;20213;-82
2022/09/29 03:28:04;;;;;;;6.95;5.40;;;;;;;9.64;98.24;96615.81;4196616;28;20587;-82
2022/09/29 03:30:08;;;;;;;7.30;6.00;;;;;;;9.64;98.52;96604.59;4180425;28;20693;-82
2022/09/29 03:32:12;;;;;;;8.18;5.72;;;;;;;9.65;98.06;96599.25;4192845;28;20650;-82
2022/09/29 03:34:15;;;;;;;8.75;6.18;;;;;;;9.65;98.17;96606.22;4188280;28;20574;-81
2022/09/29 03:36:18;;;;;;;7.93;5.90;;;;;;;9.66;98.23;96600.06;4171954;28;20802;-81
2022/09/29 03:38:21;;;;;;;10.00;5.80;;;;;;;9.66;98.12;96597.47;4189554;28;20639;-82
2022/09/29 03:40:24;;;;;;;7.28;5.70;;;;;;;9.66;98.14;96592.25;4177785;28;20676;-82
2022/09/29 03:42:28;;;;;;;7.50;6.63;;;;;;;9.65;98.06;96591.44;4192233;28;20205;-82
2022/09/29 03:44:31;;;;;;;7.35;6.65;;;;;;;9.63;98.30;96597.75;4189436;28;25067;-81
2022/09/29 03:46:34;;;;;;;7.60;5.88;;;;;;;9.62;99.06;96590.88;4190474;28;20738;-81
2022/09/29 03:48:38;;;;;;;8.27;6.50;;;;;;;9.64;98.40;96595.00;4195631;28;20554;-82
2022/09/29 03:50:44;;;;;;;7.47;5.60;;;;;;;9.64;98.40;96586.38;4194314;28;21250;-82
2022/09/29 03:52:47;;;;;;;8.00;6.38;;;;;;;9.63;98.27;96582.94;4198486;28;20194;-81
2022/09/29 03:54:51;;;;;;;7.00;6.20;;;;;;;9.61;98.78;96587.47;4195517;28;20210;-81
2022/09/29 03:56:54;;;;;;;9.95;6.03;;;;;;;9.63;98.28;96582.13;4193152;28;20236;-81
2022/09/29 03:58:58;;;;;;;6.25;5.07;;;;;;;9.62;98.16;96585.66;4179336;28;20236;-82
2022/09/29 04:01:01;;;;;;;7.60;5.90;;;;;;;9.62;97.68;96585.66;4196421;28;20217;-82
2022/09/29 04:03:05;;;;;;;6.80;5.43;;;;;;;9.63;98.09;96589.94;4195123;28;20616;-82
2022/09/29 04:05:08;;;;;;;6.10;5.07;;;;;;;9.60;98.09;96595.41;4191149;28;20211;-82
2022/09/29 04:07:12;;;;;;;6.70;5.05;;;;;;;9.60;97.93;96596.22;4190827;28;20213;-81
2022/09/29 04:09:15;;;;;;;6.25;5.50;;;;;;;9.60;98.10;96598.81;4192807;28;20312;-82
2022/09/29 04:11:18;;;;;;;6.35;5.75;;;;;;;9.58;97.67;96594.72;4190911;28;20213;-82
2022/09/29 04:13:21;;;;;;;7.35;5.65;;;;;;;9.58;97.58;96594.72;4174899;28;20532;-81
2022/09/29 04:15:25;;;;;;;6.10;5.30;;;;;;;9.57;97.32;96593.88;4193673;28;20220;-82
2022/09/29 04:17:28;;;;;;;6.20;5.10;;;;;;;9.55;97.22;96595.81;4185699;28;20209;-82
2022/09/29 04:19:31;;;;;;;6.82;5.47;;;;;;;9.54;97.17;96596.75;4176950;28;20206;-82
2022/09/29 04:21:34;;;;;;;6.75;5.80;;;;;;;9.54;97.03;96596.75;4192956;28;20663;-82
2022/09/29 04:23:37;;;;;;;6.63;5.35;;;;;;;9.55;96.64;96600.19;4189753;28;20248;-81
2022/09/29 04:25:40;;;;;;;8.35;4.10;;;;;;;9.56;97.03;96597.47;4194521;28;20243;-81
2022/09/29 04:27:43;;;;;;;6.32;5.63;;;;;;;9.52;96.49;96590.06;4193643;28;20295;-82
2022/09/29 04:29:46;;;;;;;12.55;10.77;;;;;;;9.48;96.39;96589.47;4193141;28;20229;-81
2022/09/29 04:31:53;;;;;;;10.27;6.00;;;;;;;9.43;96.46;96583.88;4192864;28;20672;-81
2022/09/29 04:33:57;;;;;;;6.93;5.63;;;;;;;9.36;95.93;96587.16;4192112;28;20205;-82
2022/09/29 04:36:00;;;;;;;6.63;5.65;;;;;;;9.29;97.02;96583.44;4194073;28;20615;-82
2022/09/29 04:38:03;;;;;;;7.35;5.05;;;;;;;9.24;96.84;96585.59;4179468;28;20250;-82
2022/09/29 04:40:07;;;;;;;7.88;5.50;;;;;;;9.19;96.27;96582.59;4199359;28;20201;-81
2022/09/29 04:42:10;;;;;;;6.68;5.10;;;;;;;9.16;96.58;96590.66;4191239;28;20446;-82
2022/09/29 04:44:13;;;;;;;8.27;4.80;;;;;;;9.12;96.57;96594.47;4195113;28;20306;-82
2022/09/29 04:46:16;;;;;;;6.07;5.07;;;;;;;9.10;96.27;96593.78;4194054;28;20205;-82
2022/09/29 04:48:21;;;;;;;5.70;5.00;;;;;;;9.10;96.46;96588.59;4191122;28;20227;-82
2022/09/29 04:50:24;;;;;;;8.35;6.65;;;;;;;9.10;96.35;96593.78;4195676;28;21068;-82
2022/09/29 04:52:27;;;;;;;9.32;6.40;;;;;;;9.10;96.41;96587.78;4177653;28;20248;-82
2022/09/29 04:54:31;;;;;;;9.18;7.00;;;;;;;9.13;96.89;96583.13;4199867;28;20665;-82
2022/09/29 04:56:39;;;;;;;8.27;6.30;;;;;;;9.13;96.91;96592.72;4189065;28;20259;-81
2022/09/29 04:58:42;;;;;;;8.60;6.70;;;;;;;9.13;96.70;96590.13;4196753;28;20201;-82
2022/09/29 05:00:46;;;;;;;7.25;6.55;;;;;;;9.10;96.58;96593.78;4191493;28;20600;-82
2022/09/29 05:02:49;;;;;;;9.00;6.20;;;;;;;9.07;96.09;96586.25;4186895;28;20205;-82
2022/09/29 05:04:53;;;;;;;7.50;5.90;;;;;;;9.06;96.13;96595.00;4190871;28;20205;-82
2022/09/29 05:06:56;;;;;;;7.57;6.55;;;;;;;9.05;95.97;96601.19;4195164;28;20212;-82
2022/09/29 05:08:59;;;;;;;6.80;5.80;;;;;;;9.04;96.09;96599.53;4194867;28;20677;-82
2022/09/29 05:11:04;;;;;;;6.47;5.65;;;;;;;9.03;95.81;96595.25;4187749;28;20238;-82
2022/09/29 05:13:07;;;;;;;6.85;5.63;;;;;;;9.02;96.05;96603.19;4188475;28;20711;-82
2022/09/29 05:15:10;;;;;;;7.45;5.00;;;;;;;9.02;95.76;96603.19;4194718;28;20206;-82
2022/09/29 05:17:13;;;;;;;6.55;5.22;;;;;;;9.02;95.31;96614.44;4195992;28;20208;-82
2022/09/29 05:19:16;;;;;;;24.40;14.27;;;;;;;9.02;96.29;96616.19;4192637;28;20205;-82
2022/09/29 05:21:21;;;;;;;17.00;11.05;;;;;;;9.03;96.25;96617.84;4187300;28;20240;-82
2022/09/29 05:23:30;;;;;;;9.07;6.10;;;;;;;9.03;96.29;96623.06;4195005;28;20571;-82
2022/09/29 05:25:34;;;;;;;7.47;5.50;;;;;;;8.99;96.04;96630.31;4177906;28;20205;-82
2022/09/29 05:27:37;;;;;;;9.13;6.40;;;;;;;8.97;95.98;96624.38;4184452;28;20213;-82
2022/09/29 05:29:40;;;;;;;8.75;6.90;;;;;;;8.99;95.66;96632.06;4183780;28;20599;-82
2022/09/29 05:31:44;;;;;;;7.30;6.60;;;;;;;8.99;95.53;96632.91;4190828;28;20254;-83
2022/09/29 05:33:47;;;;;;;8.65;6.15;;;;;;;8.96;95.67;96634.94;4207393;28;20228;-82
2022/09/29 05:35:53;;;;;;;7.65;5.85;;;;;;;8.93;95.31;96632.63;4208016;28;20721;-82
2022/09/29 05:37:57;;;;;;;9.95;8.77;;;;;;;8.91;95.25;96631.91;4181829;28;20206;-82
2022/09/29 05:40:01;;;;;;;8.30;6.45;;;;;;;8.87;94.20;96634.88;4171380;28;20239;-82
2022/09/29 05:42:05;;;;;;;7.07;6.38;;;;;;;8.85;95.08;96634.19;4176407;28;20583;-82
2022/09/29 05:44:08;;;;;;;7.05;5.50;;;;;;;8.85;95.30;96636.81;4177866;28;20206;-82
2022/09/29 05:46:11;;;;;;;7.88;6.00;;;;;;;8.85;95.28;96639.41;4191228;28;20209;-82
2022/09/29 05:48:14;;;;;;;7.30;5.30;;;;;;;8.86;95.44;96641.88;4184738;28;20236;-82
2022/09/29 05:50:17;;;;;;;15.02;5.63;;;;;;;8.90;95.09;96642.44;4179946;28;20226;-82
2022/09/29 05:52:23;;;;;;;9.63;6.20;;;;;;;8.90;95.41;96638.06;4178211;28;20213;-82
2022/09/29 05:54:27;;;;;;;15.43;8.82;;;;;;;8.91;95.47;96637.09;4192054;28;20212;-82
2022/09/29 05:56:30;;;;;;;12.68;8.20;;;;;;;8.95;96.54;96649.72;4184413;28;20631;-82
2022/09/29 05:58:33;;;;;;;10.70;7.10;;;;;;;9.00;96.77;96639.72;4187535;28;20210;-82
2022/09/29 06:00:36;;;;;;;9.07;7.40;;;;;;;9.04;96.54;96646.31;4177183;28;20198;-82
2022/09/29 06:02:39;;;;;;;11.65;7.53;;;;;;;9.09;96.51;96653.72;4194853;28;20275;-82
2022/09/29 06:04:43;;;;;;;9.77;7.13;;;;;;;9.10;96.80;96656.22;4195065;28;20740;-82
2022/09/29 06:06:47;;;;;;;9.50;6.53;;;;;;;9.12;96.50;96653.47;4188777;28;20270;-82
2022/09/29 06:08:50;;;;;;;7.18;6.25;;;;;;;9.09;96.50;96649.34;4187810;28;20271;-82
2022/09/29 06:10:55;;;;;;;8.75;6.35;;;;;;;9.09;96.56;96649.34;4192195;28;20237;-82
2022/09/29 06:12:58;;;;;;;10.15;5.93;;;;;;;9.12;96.80;96640.47;4207017;28;20228;-82
2022/09/29 06:15:01;;;;;;;7.47;6.43;;;;;;;9.17;96.67;96648.69;4193681;28;20262;-83
2022/09/29 06:17:04;;;;;;;7.70;6.78;;;;;;;9.21;97.30;96637.91;4195377;28;20683;-82
2022/09/29 06:19:07;;;;;;;13.25;7.65;;;;;;;9.26;96.83;96646.16;4194963;28;20712;-82
2022/09/29 06:21:11;;;;;;;11.05;6.15;;;;;;;9.33;96.75;96644.66;4192534;28;20204;-82
2022/09/29 06:23:14;;;;;;;11.20;6.78;;;;;;;9.38;96.77;96645.91;4191281;28;20205;-82
2022/09/29 06:25:17;;;;;;;9.25;7.20;;;;;;;9.46;97.02;96642.63;4189670;28;20675;-82
2022/09/29 06:27:22;;;;;;;8.03;6.00;;;;;;;9.55;97.20;96642.66;4192078;28;20197;-83
2022/09/29 06:29:25;;;;;;;8.80;6.95;;;;;;;9.67;97.21;96645.97;4192696;28;20638;-82
2022/09/29 06:31:30;;;;;;;12.77;8.18;;;;;;;9.77;96.90;96646.78;4172343;28;20230;-82
2022/09/29 06:33:35;;;;;;;13.77;8.40;;;;;;;9.84;96.67;96651.31;4190875;28;20263;-83
2022/09/29 06:38:01;;;;;;;13.90;6.40;;;;;;;9.93;96.07;96647.91;4177922;28;20209;-82
2022/09/29 06:40:07;;;;;;;7.60;6.53;;;;;;;9.93;96.42;96648.75;4181926;28;20202;-82
2022/09/29 06:42:13;;;;;;;8.93;6.13;;;;;;;9.89;95.51;96644.75;4177285;28;20628;-82
2022/09/29 06:44:18;;;;;;;6.90;5.87;;;;;;;9.91;95.51;96653.25;4186542;28;20638;-82
2022/09/29 06:46:21;;;;;;;7.57;6.00;;;;;;;9.94;96.17;96658.22;4181794;28;20620;-82
2022/09/29 06:48:24;;;;;;;8.43;5.67;;;;;;;9.97;95.58;96657.13;4187667;28;20627;-82
2022/09/29 06:50:27;;;;;;;12.05;7.65;;;;;;;9.99;96.77;96656.03;4172996;28;20652;-83
2022/09/29 06:52:30;;;;;;;8.88;6.38;;;;;;;10.03;95.87;96654.00;4177352;28;20299;-81
2022/09/29 06:54:33;;;;;;;8.07;6.28;;;;;;;10.08;95.86;96660.41;4190486;28;20232;-82
2022/09/29 06:56:37;;;;;;;9.27;6.20;;;;;;;10.13;96.05;96665.22;4173493;28;20206;-81
2022/09/29 06:58:40;;;;;;;9.23;5.80;;;;;;;10.17;95.87;96671.81;4191976;28;20759;-82
2022/09/29 07:00:44;;;;;;;7.03;6.03;;;;;;;10.21;96.29;96674.00;4196135;28;21030;-82
2022/09/29 07:02:53;;;;;;;8.20;5.70;;;;;;;10.26;95.83;96679.63;4196504;28;20619;-83
2022/09/29 07:04:56;;;;;;;7.60;6.17;;;;;;;10.29;96.59;96670.72;4214319;28;20623;-83
2022/09/29 07:06:59;;;;;;;8.35;5.95;;;;;;;10.32;96.80;96679.88;4178090;28;20626;-82
2022/09/29 07:09:02;;;;;;;6.60;5.90;;;;;;;10.39;96.51;96672.34;4189458;28;20217;-82
2022/09/29 07:11:06;;;;;;;7.18;5.10;;;;;;;10.42;95.13;96666.88;4192838;28;20706;-82
2022/09/29 07:13:09;;;;;;;7.35;6.03;;;;;;;10.47;95.45;96675.91;4191208;28;20245;-82
2022/09/29 07:15:12;;;;;;;8.83;5.70;;;;;;;10.55;94.94;96677.81;4193166;28;20217;-82
2022/09/29 07:17:17;;;;;;;6.40;5.80;;;;;;;10.62;96.41;96684.13;4198331;28;20685;-82
2022/09/29 07:19:20;;;;;;;9.60;6.00;;;;;;;10.69;96.75;96685.19;4192824;28;20741;-82
2022/09/29 07:21:24;;;;;;;9.37;5.30;;;;;;;10.74;96.71;96683.81;4196160;28;20626;-82
2022/09/29 07:23:27;;;;;;;6.50;5.27;;;;;;;10.78;94.74;96674.75;4191039;28;21356;-82
2022/09/29 07:25:31;;;;;;;7.30;5.77;;;;;;;10.85;95.47;96684.50;4189776;28;20685;-82
2022/09/29 07:27:54;;;;;;;8.63;5.97;;;;;;;10.91;94.66;96683.91;4187840;28;21222;-82
2022/09/29 07:29:57;;;;;;;7.20;5.73;;;;;;;10.97;94.30;96685.94;4178376;28;21032;-82
2022/09/29 07:32:06;;;;;;;9.87;6.37;;;;;;;11.01;94.93;96695.16;4196587;28;21081;-82
2022/09/29 07:34:22;;;;;;;12.97;7.77;;;;;;;11.05;95.73;96688.69;4175333;28;20641;-82
2022/09/29 07:36:25;;;;;;;7.30;5.60;;;;;;;11.09;94.20;96702.25;4194607;28;20634;-83
2022/09/29 07:38:29;;;;;;;8.13;5.90;;;;;;;11.11;95.91;96701.16;4195037;28;21263;-82
2022/09/29 07:40:32;;;;;;;7.27;6.27;;;;;;;11.14;94.72;96703.50;4195505;28;20635;-82
2022/09/29 07:42:35;;;;;;;9.73;6.00;;;;;;;11.18;94.60;96697.00;4177273;28;20656;-83
2022/09/29 07:44:38;;;;;;;7.57;5.93;;;;;;;11.23;95.75;96705.25;4194302;28;20627;-82
2022/09/29 07:46:41;;;;;;;6.60;5.90;;;;;;;11.24;95.97;96703.47;4190084;28;20985;-82
2022/09/29 07:48:45;;;;;;;6.87;5.30;;;;;;;11.20;94.09;96694.25;4197743;28;20635;-82
2022/09/29 07:50:51;;;;;;;8.23;5.47;;;;;;;11.20;95.20;96695.09;4186109;28;20652;-82
2022/09/29 07:52:54;;;;;;;7.60;5.70;;;;;;;11.23;94.84;96689.59;4177927;28;21020;-83
2022/09/29 07:54:57;;;;;;;8.80;6.07;;;;;;;11.24;94.59;96696.44;4190302;28;21046;-83
2022/09/29 07:57:02;;;;;;;7.40;6.70;;;;;;;11.27;94.05;96701.38;4178917;28;20731;-83
2022/09/29 07:59:05;;;;;;;12.93;6.83;;;;;;;11.30;96.67;96698.47;4195383;28;20634;-83
2022/09/29 08:01:11;;;;;;;6.47;5.30;;;;;;;11.36;96.80;96705.75;4193929;28;21263;-83
2022/09/29 08:03:14;;;;;;;8.07;5.83;;;;;;;11.39;94.86;96702.84;4191170;28;20664;-83
2022/09/29 08:05:18;;;;;;;7.60;6.40;;;;;;;11.44;94.14;96700.63;4196026;28;20627;-82
2022/09/29 08:07:23;;;;;;;9.97;7.70;;;;;;;11.46;94.73;96709.97;4194605;28;20623;-83
2022/09/29 08:09:26;;;;;;;11.43;8.47;;;;;;;11.53;96.07;96711.06;4195411;28;20635;-83
2022/09/29 08:11:42;;;;;;;10.37;7.70;;;;;;;11.62;95.51;96715.44;4185529;28;20664;-83
2022/09/29 08:13:46;;;;;;;12.77;8.10;;;;;;;11.69;94.91;96719.09;4193223;28;21226;-82
2022/09/29 08:15:49;;;;;;;9.60;6.87;;;;;;;11.76;94.83;96720.16;4189202;28;20640;-82
2022/09/29 08:17:52;;;;;;;7.93;5.60;;;;;;;11.75;95.21;96711.47;4192724;28;20635;-82
2022/09/29 08:19:55;;;;;;;7.63;6.23;;;;;;;11.78;93.97;96718.22;4194494;28;20621;-83
2022/09/29 08:21:58;;;;;;;7.00;5.70;;;;;;;11.82;96.46;96722.19;4195147;28;20995;-83
2022/09/29 08:24:04;;;;;;;6.53;5.40;;;;;;;11.88;95.29;96722.44;4196054;28;20639;-83
2022/09/29 08:26:09;;;;;;;6.30;5.47;;;;;;;11.94;94.02;96727.06;4195656;28;20623;-83
2022/09/29 08:28:12;;;;;;;8.30;6.03;;;;;;;12.03;94.66;96718.34;4177388;28;21020;-83
2022/09/29 08:30:28;;;;;;;9.27;6.40;;;;;;;12.14;96.04;96727.78;4190616;28;20975;-83
2022/09/29 08:32:31;;;;;;;7.00;6.27;;;;;;;12.23;95.07;96732.94;4193284;28;20663;-84
2022/09/29 08:34:38;;;;;;;6.90;5.67;;;;;;;12.29;95.75;96735.75;4185880;28;20624;-82
2022/09/29 08:36:41;;;;;;;7.70;5.90;;;;;;;12.34;93.56;96732.72;4192545;28;20628;-82
2022/09/29 08:38:45;;;;;;;7.57;6.07;;;;;;;12.39;94.36;96738.34;4188919;28;20654;-83
2022/09/29 08:40:50;;;;;;;6.80;6.03;;;;;;;12.43;92.42;96745.72;4191325;28;20719;-82
2022/09/29 08:43:00;;;;;;;6.83;5.50;;;;;;;12.52;94.48;96744.81;4188739;28;20627;-82
2022/09/29 08:45:08;;;;;;;6.70;5.40;;;;;;;12.61;92.62;96753.56;4189307;28;20730;-82
2022/09/29 08:47:22;;;;;;;8.60;6.00;;;;;;;12.70;93.00;96748.25;4177346;28;20620;-82
2022/09/29 08:49:31;;;;;;;6.30;5.40;;;;;;;12.83;92.68;96754.78;4174189;28;20713;-82
2022/09/29 08:51:38;;;;;;;6.73;5.33;;;;;;;12.94;92.59;96743.25;4189281;28;20696;-82
2022/09/29 08:53:46;;;;;;;6.30;4.77;;;;;;;13.04;92.63;96755.28;4173386;28;20644;-83
2022/09/29 08:56:09;;;;;;;5.73;4.00;;;;;;;13.10;90.95;96751.25;4176279;28;20644;-82
2022/09/29 08:58:15;;;;;;;6.37;4.57;;;;;;;13.14;88.74;96748.16;4192762;28;20610;-82
2022/09/29 09:00:20;;;;;;;10.40;4.20;;;;;;;13.22;87.77;96749.03;4185396;28;20790;-82
2022/09/29 09:02:47;;;;;;;4.30;3.70;;;;;;;13.31;85.76;96742.88;4205716;28;20650;-82
2022/09/29 09:05:06;;;;;;;4.90;3.13;;;;;;;13.43;87.13;96743.44;4192802;28;20632;-82
2022/09/29 09:07:14;;;;;;;5.33;3.33;;;;;;;13.57;84.95;96751.53;4189002;28;20631;-82
2022/09/29 09:09:40;;;;;;;4.33;3.10;;;;;;;13.62;84.98;96746.66;4191780;28;21055;-82
2022/09/29 09:12:02;;;;;;;5.27;3.50;;;;;;;13.64;84.34;96747.31;4176324;28;21266;-82
2022/09/29 09:14:15;;;;;;;5.00;2.83;;;;;;;13.66;84.89;96746.16;4169834;28;21012;-82
2022/09/29 09:16:27;;;;;;;4.53;3.23;;;;;;;13.76;86.25;96757.34;4187495;28;20891;-82
2022/09/29 09:18:56;;;;;;;4.10;3.50;;;;;;;13.89;85.88;96752.53;4194876;28;20632;-83
2022/09/29 09:21:07;;;;;;;5.43;3.03;;;;;;;14.08;85.87;96762.78;4194659;28;20636;-82
2022/09/29 09:23:16;;;;;;;3.93;3.10;;;;;;;14.18;83.83;96747.75;4188800;28;20633;-83
2022/09/29 09:25:23;;;;;;;5.30;3.80;;;;;;;14.25;83.62;96752.19;4173772;28;20668;-83
2022/09/29 09:27:33;;;;;;;4.17;3.23;;;;;;;14.26;83.02;96745.13;4194621;28;20630;-82
2022/09/29 09:29:39;;;;;;;5.33;3.20;;;;;;;14.24;84.42;96752.34;4187410;28;20634;-83
2022/09/29 09:31:44;;;;;;;3.60;3.10;;;;;;;14.27;84.38;96749.41;4194156;28;20625;-83
2022/09/29 09:33:52;;;;;;;6.67;2.70;;;;;;;14.27;82.98;96752.84;4191800;28;21183;-83
2022/09/29 09:36:11;;;;;;;6.73;2.60;;;;;;;14.27;82.25;96749.41;4186668;28;20724;-83
2022/09/29 09:38:21;;;;;;;4.43;2.87;;;;;;;14.39;83.70;96756.81;4189415;28;20618;-83
2022/09/29 09:40:26;;;;;;;4.70;2.60;;;;;;;14.46;82.77;96756.97;4194056;28;20637;-84
2022/09/29 09:42:33;;;;;;;4.60;2.60;;;;;;;14.58;83.16;96767.00;4193306;28;21241;-83
2022/09/29 09:44:40;;;;;;;6.83;3.30;;;;;;;14.73;81.91;96768.00;4194654;28;20635;-82
2022/09/29 09:46:46;;;;;;;3.90;2.63;;;;;;;14.83;81.06;96771.31;4189714;28;20625;-82
2022/09/29 09:48:57;;;;;;;4.10;2.90;;;;;;;14.93;82.34;96766.69;4186379;28;20642;-82
2022/09/29 09:51:02;;;;;;;4.03;2.93;;;;;;;14.98;82.57;96772.31;4188927;28;20728;-83
2022/09/29 09:53:11;;;;;;;4.80;2.80;;;;;;;14.91;81.38;96776.56;4194459;28;20753;-83
2022/09/29 09:55:19;;;;;;;6.43;2.77;;;;;;;14.89;81.22;96776.72;4189411;28;20674;-82
2022/09/29 09:57:40;;;;;;;3.60;2.90;;;;;;;14.89;79.93;96775.91;4173772;28;20630;-83
2022/09/29 09:59:52;;;;;;;3.67;2.43;;;;;;;14.87;81.42;96778.69;4190582;28;21085;-83